sensor_id;sensor_type;location;lat;lon;timestamp;temperature;humidity
13264;DHT22;6700;51.988;7.646;2023-02-28T00:01:13;-0.40;99.90
13264;DHT22;6700;51.988;7.646;2023-02-28T00:03:40;-0.50;99.90
13264;DHT22;6700;51.988;7.646;2023-02-28T00:06:08;-0.50;99.90
13264;DHT22;6700;51.988;7.646;2023-02-28T00:08:37;-0.50;99.90
13264;DHT22;6700;51.988;7.646;2023-02-28T00:11:06;-0.50;99.90
13264;DHT22;6700;51.988;7.646;2023-02-28T00:13:36;-0.50;99.90
13264;DHT22;6700;51.988;7.646;2023-02-28T00:16:11;-0.40;99.90
13264;DHT22;6700;51.988;7.646;2023-02-28T00:18:40;-0.30;99.90
13264;DHT22;6700;51.988;7.646;2023-02-28T00:21:07;-0.60;99.90
13264;DHT22;6700;51.988;7.646;2023-02-28T00:23:34;-0.40;99.90
13264;DHT22;6700;51.988;7.646;2023-02-28T00:26:02;-0.60;99.90
13264;DHT22;6700;51.988;7.646;2023-02-28T00:28:29;-0.30;99.90
13264;DHT22;6700;51.988;7.646;2023-02-28T00:30:56;-0.60;99.90
13264;DHT22;6700;51.988;7.646;2023-02-28T00:33:24;-0.60;99.90
13264;DHT22;6700;51.988;7.646;2023-02-28T00:35:50;-0.40;99.90
13264;DHT22;6700;51.988;7.646;2023-02-28T00:38:17;-0.40;99.90
13264;DHT22;6700;51.988;7.646;2023-02-28T00:40:44;-0.50;99.90
13264;DHT22;6700;51.988;7.646;2023-02-28T00:43:11;-0.40;99.90
13264;DHT22;6700;51.988;7.646;2023-02-28T00:45:37;-0.60;99.90
13264;DHT22;6700;51.988;7.646;2023-02-28T00:48:04;-0.70;99.90
13264;DHT22;6700;51.988;7.646;2023-02-28T00:50:31;-0.70;99.90
13264;DHT22;6700;51.988;7.646;2023-02-28T00:52:58;-0.50;99.90
13264;DHT22;6700;51.988;7.646;2023-02-28T00:55:24;-0.80;99.90
13264;DHT22;6700;51.988;7.646;2023-02-28T00:57:51;-0.50;99.90
13264;DHT22;6700;51.988;7.646;2023-02-28T01:00:18;-0.60;99.90
13264;DHT22;6700;51.988;7.646;2023-02-28T01:02:44;-0.60;99.90
13264;DHT22;6700;51.988;7.646;2023-02-28T01:05:11;-0.90;99.90
13264;DHT22;6700;51.988;7.646;2023-02-28T01:07:38;-0.90;99.90
13264;DHT22;6700;51.988;7.646;2023-02-28T01:10:05;-1.00;99.90
13264;DHT22;6700;51.988;7.646;2023-02-28T01:12:32;-0.70;99.90
13264;DHT22;6700;51.988;7.646;2023-02-28T01:14:58;-1.00;99.90
13264;DHT22;6700;51.988;7.646;2023-02-28T01:17:25;-0.80;99.90
13264;DHT22;6700;51.988;7.646;2023-02-28T01:19:54;-1.00;99.90
13264;DHT22;6700;51.988;7.646;2023-02-28T01:22:21;-0.80;99.90
13264;DHT22;6700;51.988;7.646;2023-02-28T01:24:48;-1.10;99.90
13264;DHT22;6700;51.988;7.646;2023-02-28T01:27:15;-1.20;99.90
13264;DHT22;6700;51.988;7.646;2023-02-28T01:29:41;-1.20;99.90
13264;DHT22;6700;51.988;7.646;2023-02-28T01:32:08;-1.20;99.90
13264;DHT22;6700;51.988;7.646;2023-02-28T01:34:35;-1.30;99.90
13264;DHT22;6700;51.988;7.646;2023-02-28T01:37:02;-1.20;99.90
13264;DHT22;6700;51.988;7.646;2023-02-28T01:39:30;-1.30;99.90
13264;DHT22;6700;51.988;7.646;2023-02-28T01:41:56;-1.10;99.90
13264;DHT22;6700;51.988;7.646;2023-02-28T01:44:55;-1.10;99.90
13264;DHT22;6700;51.988;7.646;2023-02-28T01:47:27;-1.40;99.90
13264;DHT22;6700;51.988;7.646;2023-02-28T01:49:55;-1.40;99.90
13264;DHT22;6700;51.988;7.646;2023-02-28T01:52:22;-1.40;99.90
13264;DHT22;6700;51.988;7.646;2023-02-28T01:54:54;-1.40;99.90
13264;DHT22;6700;51.988;7.646;2023-02-28T01:57:29;-1.10;99.90
13264;DHT22;6700;51.988;7.646;2023-02-28T02:00:00;-1.40;99.90
13264;DHT22;6700;51.988;7.646;2023-02-28T02:02:31;-1.20;99.90
13264;DHT22;6700;51.988;7.646;2023-02-28T02:05:05;-1.30;99.90
13264;DHT22;6700;51.988;7.646;2023-02-28T02:07:35;-1.40;99.90
13264;DHT22;6700;51.988;7.646;2023-02-28T02:10:21;-1.40;99.90
13264;DHT22;6700;51.988;7.646;2023-02-28T02:19:01;-1.30;99.90
13264;DHT22;6700;51.988;7.646;2023-02-28T02:35:54;-1.60;99.90
13264;DHT22;6700;51.988;7.646;2023-02-28T02:38:40;-1.60;99.90
13264;DHT22;6700;51.988;7.646;2023-02-28T02:41:17;-1.30;99.90
13264;DHT22;6700;51.988;7.646;2023-02-28T02:43:51;-1.50;99.90
13264;DHT22;6700;51.988;7.646;2023-02-28T02:46:42;-1.50;99.90
13264;DHT22;6700;51.988;7.646;2023-02-28T02:49:16;-1.40;99.90
13264;DHT22;6700;51.988;7.646;2023-02-28T02:51:47;-1.40;99.90
13264;DHT22;6700;51.988;7.646;2023-02-28T02:54:27;-1.40;99.90
13264;DHT22;6700;51.988;7.646;2023-02-28T02:56:58;-1.40;99.90
13264;DHT22;6700;51.988;7.646;2023-02-28T02:59:26;-1.70;99.90
13264;DHT22;6700;51.988;7.646;2023-02-28T03:01:57;-1.60;99.90
13264;DHT22;6700;51.988;7.646;2023-02-28T03:04:30;-1.60;99.90
13264;DHT22;6700;51.988;7.646;2023-02-28T03:06:58;-1.70;99.90
13264;DHT22;6700;51.988;7.646;2023-02-28T03:09:26;-1.70;99.90
13264;DHT22;6700;51.988;7.646;2023-02-28T03:11:55;-1.70;99.90
13264;DHT22;6700;51.988;7.646;2023-02-28T03:25:59;-1.90;99.90
13264;DHT22;6700;51.988;7.646;2023-02-28T03:31:30;-1.90;99.90
13264;DHT22;6700;51.988;7.646;2023-02-28T03:36:39;-1.90;99.90
13264;DHT22;6700;51.988;7.646;2023-02-28T03:41:59;-1.90;99.90
13264;DHT22;6700;51.988;7.646;2023-02-28T03:44:39;-2.00;99.90
13264;DHT22;6700;51.988;7.646;2023-02-28T03:47:12;-2.00;99.90
13264;DHT22;6700;51.988;7.646;2023-02-28T03:49:49;-1.90;99.90
13264;DHT22;6700;51.988;7.646;2023-02-28T03:52:18;-2.00;99.90
13264;DHT22;6700;51.988;7.646;2023-02-28T03:54:50;-2.00;99.90
13264;DHT22;6700;51.988;7.646;2023-02-28T04:00:30;-1.90;99.90
13264;DHT22;6700;51.988;7.646;2023-02-28T04:02:59;-2.00;99.90
13264;DHT22;6700;51.988;7.646;2023-02-28T04:05:26;-1.80;99.90
13264;DHT22;6700;51.988;7.646;2023-02-28T04:07:54;-1.90;99.90
13264;DHT22;6700;51.988;7.646;2023-02-28T04:10:20;-2.00;99.90
13264;DHT22;6700;51.988;7.646;2023-02-28T04:12:47;-2.10;99.90
13264;DHT22;6700;51.988;7.646;2023-02-28T04:15:14;-2.10;99.90
13264;DHT22;6700;51.988;7.646;2023-02-28T04:17:41;-2.20;99.90
13264;DHT22;6700;51.988;7.646;2023-02-28T04:20:08;-2.20;99.90
13264;DHT22;6700;51.988;7.646;2023-02-28T04:22:38;-2.30;99.90
13264;DHT22;6700;51.988;7.646;2023-02-28T04:25:05;-2.20;99.90
13264;DHT22;6700;51.988;7.646;2023-02-28T04:27:32;-2.10;99.90
13264;DHT22;6700;51.988;7.646;2023-02-28T04:29:59;-2.10;99.90
13264;DHT22;6700;51.988;7.646;2023-02-28T04:32:26;-2.20;99.90
13264;DHT22;6700;51.988;7.646;2023-02-28T04:34:52;-2.30;99.90
13264;DHT22;6700;51.988;7.646;2023-02-28T04:37:20;-2.20;99.90
13264;DHT22;6700;51.988;7.646;2023-02-28T04:39:46;-2.20;99.90
13264;DHT22;6700;51.988;7.646;2023-02-28T04:42:13;-2.30;99.90
13264;DHT22;6700;51.988;7.646;2023-02-28T04:44:41;-2.20;99.90
13264;DHT22;6700;51.988;7.646;2023-02-28T04:47:08;-2.20;99.90
13264;DHT22;6700;51.988;7.646;2023-02-28T04:49:34;-2.30;99.90
13264;DHT22;6700;51.988;7.646;2023-02-28T04:52:02;-2.40;99.90
13264;DHT22;6700;51.988;7.646;2023-02-28T04:54:29;-2.30;99.90
13264;DHT22;6700;51.988;7.646;2023-02-28T04:56:56;-2.30;99.90
13264;DHT22;6700;51.988;7.646;2023-02-28T04:59:23;-2.20;99.90
13264;DHT22;6700;51.988;7.646;2023-02-28T05:01:50;-2.30;99.90
13264;DHT22;6700;51.988;7.646;2023-02-28T05:04:17;-2.60;99.90
13264;DHT22;6700;51.988;7.646;2023-02-28T05:06:44;-2.20;99.90
13264;DHT22;6700;51.988;7.646;2023-02-28T05:11:39;-2.60;99.90
13264;DHT22;6700;51.988;7.646;2023-02-28T05:14:10;-2.30;99.90
13264;DHT22;6700;51.988;7.646;2023-02-28T05:16:37;-2.20;99.90
13264;DHT22;6700;51.988;7.646;2023-02-28T05:19:04;-2.20;99.90
13264;DHT22;6700;51.988;7.646;2023-02-28T05:21:33;-2.40;99.90
13264;DHT22;6700;51.988;7.646;2023-02-28T05:24:06;-2.20;99.90
13264;DHT22;6700;51.988;7.646;2023-02-28T05:26:36;-2.30;99.90
13264;DHT22;6700;51.988;7.646;2023-02-28T05:29:03;-2.20;99.90
13264;DHT22;6700;51.988;7.646;2023-02-28T05:31:29;-2.20;99.90
13264;DHT22;6700;51.988;7.646;2023-02-28T05:33:57;-2.30;99.90
13264;DHT22;6700;51.988;7.646;2023-02-28T05:36:24;-2.30;99.90
13264;DHT22;6700;51.988;7.646;2023-02-28T05:38:51;-2.30;99.90
13264;DHT22;6700;51.988;7.646;2023-02-28T05:41:19;-2.30;99.90
13264;DHT22;6700;51.988;7.646;2023-02-28T05:43:47;-2.30;99.90
13264;DHT22;6700;51.988;7.646;2023-02-28T05:46:14;-2.20;99.90
13264;DHT22;6700;51.988;7.646;2023-02-28T05:48:42;-2.30;99.90
13264;DHT22;6700;51.988;7.646;2023-02-28T05:51:09;-2.20;99.90
13264;DHT22;6700;51.988;7.646;2023-02-28T05:53:36;-2.30;99.90
13264;DHT22;6700;51.988;7.646;2023-02-28T05:56:03;-2.20;99.90
13264;DHT22;6700;51.988;7.646;2023-02-28T05:58:30;-2.20;99.90
13264;DHT22;6700;51.988;7.646;2023-02-28T06:00:58;-2.10;99.90
13264;DHT22;6700;51.988;7.646;2023-02-28T06:03:25;-2.30;99.90
13264;DHT22;6700;51.988;7.646;2023-02-28T06:05:52;-2.20;99.90
13264;DHT22;6700;51.988;7.646;2023-02-28T06:08:19;-2.20;99.90
13264;DHT22;6700;51.988;7.646;2023-02-28T06:10:46;-2.20;99.90
13264;DHT22;6700;51.988;7.646;2023-02-28T06:13:13;-2.30;99.90
13264;DHT22;6700;51.988;7.646;2023-02-28T06:15:40;-2.30;99.90
13264;DHT22;6700;51.988;7.646;2023-02-28T06:18:07;-2.30;99.90
13264;DHT22;6700;51.988;7.646;2023-02-28T06:20:34;-2.30;99.90
13264;DHT22;6700;51.988;7.646;2023-02-28T06:23:02;-2.40;99.90
13264;DHT22;6700;51.988;7.646;2023-02-28T06:25:29;-2.40;99.90
13264;DHT22;6700;51.988;7.646;2023-02-28T06:27:56;-2.40;99.90
13264;DHT22;6700;51.988;7.646;2023-02-28T06:30:23;-2.40;99.90
13264;DHT22;6700;51.988;7.646;2023-02-28T06:32:54;-2.30;99.90
13264;DHT22;6700;51.988;7.646;2023-02-28T06:35:21;-2.30;99.90
13264;DHT22;6700;51.988;7.646;2023-02-28T06:37:48;-2.50;99.90
13264;DHT22;6700;51.988;7.646;2023-02-28T06:40:15;-2.50;99.90
13264;DHT22;6700;51.988;7.646;2023-02-28T06:42:42;-2.50;99.90
13264;DHT22;6700;51.988;7.646;2023-02-28T06:45:10;-2.60;99.90
13264;DHT22;6700;51.988;7.646;2023-02-28T06:47:39;-2.40;99.90
13264;DHT22;6700;51.988;7.646;2023-02-28T06:50:11;-2.50;99.90
13264;DHT22;6700;51.988;7.646;2023-02-28T06:52:38;-2.60;99.90
13264;DHT22;6700;51.988;7.646;2023-02-28T06:55:06;-2.40;99.90
13264;DHT22;6700;51.988;7.646;2023-02-28T06:57:35;-2.40;99.90
13264;DHT22;6700;51.988;7.646;2023-02-28T07:00:05;-2.30;99.90
13264;DHT22;6700;51.988;7.646;2023-02-28T07:02:35;-2.30;99.90
13264;DHT22;6700;51.988;7.646;2023-02-28T07:05:03;-2.40;99.90
13264;DHT22;6700;51.988;7.646;2023-02-28T07:07:30;-2.20;99.90
13264;DHT22;6700;51.988;7.646;2023-02-28T07:09:57;-2.10;99.90
13264;DHT22;6700;51.988;7.646;2023-02-28T07:12:23;-2.30;99.90
13264;DHT22;6700;51.988;7.646;2023-02-28T07:14:50;-2.20;99.90
13264;DHT22;6700;51.988;7.646;2023-02-28T07:17:17;-2.10;99.90
13264;DHT22;6700;51.988;7.646;2023-02-28T07:19:44;-2.00;99.90
13264;DHT22;6700;51.988;7.646;2023-02-28T07:22:10;-1.80;99.90
13264;DHT22;6700;51.988;7.646;2023-02-28T07:24:39;-1.90;99.90
13264;DHT22;6700;51.988;7.646;2023-02-28T07:27:05;-1.80;99.90
13264;DHT22;6700;51.988;7.646;2023-02-28T07:29:32;-1.70;99.90
13264;DHT22;6700;51.988;7.646;2023-02-28T07:31:59;-1.60;99.90
13264;DHT22;6700;51.988;7.646;2023-02-28T07:34:26;-1.60;99.90
13264;DHT22;6700;51.988;7.646;2023-02-28T07:36:53;-1.30;99.90
13264;DHT22;6700;51.988;7.646;2023-02-28T07:39:21;-1.30;99.90
13264;DHT22;6700;51.988;7.646;2023-02-28T07:41:48;-1.00;99.90
13264;DHT22;6700;51.988;7.646;2023-02-28T07:44:15;-1.00;99.90
13264;DHT22;6700;51.988;7.646;2023-02-28T07:46:42;-0.80;99.90
13264;DHT22;6700;51.988;7.646;2023-02-28T07:49:09;-0.80;99.90
13264;DHT22;6700;51.988;7.646;2023-02-28T07:51:35;-0.70;99.90
13264;DHT22;6700;51.988;7.646;2023-02-28T07:54:02;-0.60;99.90
13264;DHT22;6700;51.988;7.646;2023-02-28T07:56:29;-0.30;99.90
13264;DHT22;6700;51.988;7.646;2023-02-28T07:58:57;-0.30;99.90
13264;DHT22;6700;51.988;7.646;2023-02-28T08:01:23;-0.30;99.90
13264;DHT22;6700;51.988;7.646;2023-02-28T08:03:50;-0.10;99.90
13264;DHT22;6700;51.988;7.646;2023-02-28T08:06:20;0.10;99.90
13264;DHT22;6700;51.988;7.646;2023-02-28T08:08:48;0.10;99.90
13264;DHT22;6700;51.988;7.646;2023-02-28T08:11:16;0.30;99.90
13264;DHT22;6700;51.988;7.646;2023-02-28T08:13:43;0.40;99.90
13264;DHT22;6700;51.988;7.646;2023-02-28T08:16:11;0.40;99.90
13264;DHT22;6700;51.988;7.646;2023-02-28T08:18:42;0.60;99.90
13264;DHT22;6700;51.988;7.646;2023-02-28T08:21:09;0.70;99.90
13264;DHT22;6700;51.988;7.646;2023-02-28T08:23:36;0.90;99.90
13264;DHT22;6700;51.988;7.646;2023-02-28T08:26:03;1.00;99.90
13264;DHT22;6700;51.988;7.646;2023-02-28T08:28:31;1.10;99.90
13264;DHT22;6700;51.988;7.646;2023-02-28T08:30:58;1.30;99.90
13264;DHT22;6700;51.988;7.646;2023-02-28T08:33:26;1.40;99.90
13264;DHT22;6700;51.988;7.646;2023-02-28T08:35:56;1.40;99.90
13264;DHT22;6700;51.988;7.646;2023-02-28T08:38:24;1.70;99.90
13264;DHT22;6700;51.988;7.646;2023-02-28T08:40:57;1.70;99.90
13264;DHT22;6700;51.988;7.646;2023-02-28T08:43:25;2.00;99.90
13264;DHT22;6700;51.988;7.646;2023-02-28T08:45:53;2.00;99.90
13264;DHT22;6700;51.988;7.646;2023-02-28T08:48:20;2.10;99.90
13264;DHT22;6700;51.988;7.646;2023-02-28T08:51:01;2.30;99.90
13264;DHT22;6700;51.988;7.646;2023-02-28T08:53:33;2.40;99.90
13264;DHT22;6700;51.988;7.646;2023-02-28T08:56:12;2.50;99.90
13264;DHT22;6700;51.988;7.646;2023-02-28T08:58:39;2.70;99.90
13264;DHT22;6700;51.988;7.646;2023-02-28T09:03:42;2.90;99.90
13264;DHT22;6700;51.988;7.646;2023-02-28T09:06:10;3.00;99.90
13264;DHT22;6700;51.988;7.646;2023-02-28T09:08:38;3.00;99.90
13264;DHT22;6700;51.988;7.646;2023-02-28T09:11:06;3.20;99.90
13264;DHT22;6700;51.988;7.646;2023-02-28T09:13:33;3.30;99.90
13264;DHT22;6700;51.988;7.646;2023-02-28T09:16:01;3.40;99.90
13264;DHT22;6700;51.988;7.646;2023-02-28T09:18:28;3.40;99.90
13264;DHT22;6700;51.988;7.646;2023-02-28T09:20:56;3.50;99.90
13264;DHT22;6700;51.988;7.646;2023-02-28T09:23:23;3.70;99.90
13264;DHT22;6700;51.988;7.646;2023-02-28T09:25:52;3.70;99.90
13264;DHT22;6700;51.988;7.646;2023-02-28T09:28:19;3.80;99.90
13264;DHT22;6700;51.988;7.646;2023-02-28T09:30:51;3.90;99.90
13264;DHT22;6700;51.988;7.646;2023-02-28T09:33:20;4.00;99.90
13264;DHT22;6700;51.988;7.646;2023-02-28T09:35:48;4.10;99.90
13264;DHT22;6700;51.988;7.646;2023-02-28T09:38:16;4.20;99.90
13264;DHT22;6700;51.988;7.646;2023-02-28T09:40:53;4.40;99.90
13264;DHT22;6700;51.988;7.646;2023-02-28T09:43:22;4.40;99.90
13264;DHT22;6700;51.988;7.646;2023-02-28T09:45:54;4.40;99.90
13264;DHT22;6700;51.988;7.646;2023-02-28T09:48:39;4.30;99.90
13264;DHT22;6700;51.988;7.646;2023-02-28T09:53:51;4.50;99.90
13264;DHT22;6700;51.988;7.646;2023-02-28T09:56:39;4.60;99.90
13264;DHT22;6700;51.988;7.646;2023-02-28T10:04:47;4.70;99.90
13264;DHT22;6700;51.988;7.646;2023-02-28T10:13:02;4.90;99.90
13264;DHT22;6700;51.988;7.646;2023-02-28T10:15:31;4.90;99.90
13264;DHT22;6700;51.988;7.646;2023-02-28T10:18:14;5.00;99.90
13264;DHT22;6700;51.988;7.646;2023-02-28T10:20:43;5.00;99.90
13264;DHT22;6700;51.988;7.646;2023-02-28T10:23:20;5.10;99.90
13264;DHT22;6700;51.988;7.646;2023-02-28T10:25:57;5.10;99.90
13264;DHT22;6700;51.988;7.646;2023-02-28T10:28:25;5.10;99.90
13264;DHT22;6700;51.988;7.646;2023-02-28T10:30:54;5.20;99.90
13264;DHT22;6700;51.988;7.646;2023-02-28T10:33:32;5.20;99.90
13264;DHT22;6700;51.988;7.646;2023-02-28T10:36:01;5.30;99.90
13264;DHT22;6700;51.988;7.646;2023-02-28T10:38:39;5.30;99.90
13264;DHT22;6700;51.988;7.646;2023-02-28T10:41:15;5.40;99.90
13264;DHT22;6700;51.988;7.646;2023-02-28T10:43:44;5.50;99.90
13264;DHT22;6700;51.988;7.646;2023-02-28T10:46:16;5.50;99.90
13264;DHT22;6700;51.988;7.646;2023-02-28T10:49:00;5.50;99.90
13264;DHT22;6700;51.988;7.646;2023-02-28T10:51:37;5.60;99.90
13264;DHT22;6700;51.988;7.646;2023-02-28T10:54:04;5.40;99.90
13264;DHT22;6700;51.988;7.646;2023-02-28T10:56:32;5.40;99.90
13264;DHT22;6700;51.988;7.646;2023-02-28T10:59:03;5.50;99.90
13264;DHT22;6700;51.988;7.646;2023-02-28T11:03:58;5.70;99.90
13264;DHT22;6700;51.988;7.646;2023-02-28T11:06:30;5.80;99.90
13264;DHT22;6700;51.988;7.646;2023-02-28T11:09:01;5.80;99.90
13264;DHT22;6700;51.988;7.646;2023-02-28T11:11:30;5.70;99.90
13264;DHT22;6700;51.988;7.646;2023-02-28T11:14:40;5.60;99.90
13264;DHT22;6700;51.988;7.646;2023-02-28T11:17:19;5.70;99.90
13264;DHT22;6700;51.988;7.646;2023-02-28T11:19:49;5.40;99.90
13264;DHT22;6700;51.988;7.646;2023-02-28T11:22:27;5.40;99.90
13264;DHT22;6700;51.988;7.646;2023-02-28T11:24:57;5.30;99.90
13264;DHT22;6700;51.988;7.646;2023-02-28T11:27:42;5.30;99.90
13264;DHT22;6700;51.988;7.646;2023-02-28T11:30:24;5.50;99.90
13264;DHT22;6700;51.988;7.646;2023-02-28T11:32:51;5.40;99.90
13264;DHT22;6700;51.988;7.646;2023-02-28T11:35:31;5.40;99.90
13264;DHT22;6700;51.988;7.646;2023-02-28T11:38:02;5.50;99.90
13264;DHT22;6700;51.988;7.646;2023-02-28T11:40:37;5.60;99.90
13264;DHT22;6700;51.988;7.646;2023-02-28T11:46:18;5.40;99.90
13264;DHT22;6700;51.988;7.646;2023-02-28T11:51:49;5.30;99.90
13264;DHT22;6700;51.988;7.646;2023-02-28T11:57:45;5.30;99.90
13264;DHT22;6700;51.988;7.646;2023-02-28T12:03:22;5.30;99.90
13264;DHT22;6700;51.988;7.646;2023-02-28T12:17:41;5.30;99.90
13264;DHT22;6700;51.988;7.646;2023-02-28T12:28:44;5.30;99.90
13264;DHT22;6700;51.988;7.646;2023-02-28T12:33:50;5.50;99.90
13264;DHT22;6700;51.988;7.646;2023-02-28T12:36:19;5.40;99.90
13264;DHT22;6700;51.988;7.646;2023-02-28T12:39:02;5.30;99.90
13264;DHT22;6700;51.988;7.646;2023-02-28T12:41:48;5.40;99.90
13264;DHT22;6700;51.988;7.646;2023-02-28T12:44:30;5.30;99.90
13264;DHT22;6700;51.988;7.646;2023-02-28T12:47:02;5.30;99.90
13264;DHT22;6700;51.988;7.646;2023-02-28T12:49:42;5.20;99.90
13264;DHT22;6700;51.988;7.646;2023-02-28T12:52:13;5.30;99.90
13264;DHT22;6700;51.988;7.646;2023-02-28T12:54:57;5.30;99.90
13264;DHT22;6700;51.988;7.646;2023-02-28T12:57:50;5.20;99.90
13264;DHT22;6700;51.988;7.646;2023-02-28T13:00:22;5.30;99.90
13264;DHT22;6700;51.988;7.646;2023-02-28T13:03:09;5.30;99.90
13264;DHT22;6700;51.988;7.646;2023-02-28T13:09:08;5.30;99.90
13264;DHT22;6700;51.988;7.646;2023-02-28T13:11:43;5.30;99.90
13264;DHT22;6700;51.988;7.646;2023-02-28T13:17:02;5.20;99.90
13264;DHT22;6700;51.988;7.646;2023-02-28T13:19:42;5.30;99.90
13264;DHT22;6700;51.988;7.646;2023-02-28T13:24:56;5.30;99.90
13264;DHT22;6700;51.988;7.646;2023-02-28T13:27:25;5.30;99.90
13264;DHT22;6700;51.988;7.646;2023-02-28T13:29:58;5.20;99.90
13264;DHT22;6700;51.988;7.646;2023-02-28T13:39:58;5.30;99.90
13264;DHT22;6700;51.988;7.646;2023-02-28T13:42:46;5.40;99.90
13264;DHT22;6700;51.988;7.646;2023-02-28T13:45:21;5.30;99.90
13264;DHT22;6700;51.988;7.646;2023-02-28T13:48:15;5.30;99.90
13264;DHT22;6700;51.988;7.646;2023-02-28T13:50:43;5.30;99.90
13264;DHT22;6700;51.988;7.646;2023-02-28T14:06:33;5.30;99.90
13264;DHT22;6700;51.988;7.646;2023-02-28T14:11:51;5.30;99.90
13264;DHT22;6700;51.988;7.646;2023-02-28T14:17:14;5.40;99.90
13264;DHT22;6700;51.988;7.646;2023-02-28T14:19:45;5.40;99.90
13264;DHT22;6700;51.988;7.646;2023-02-28T14:36:32;5.30;99.90
13264;DHT22;6700;51.988;7.646;2023-02-28T14:39:04;5.30;99.90
13264;DHT22;6700;51.988;7.646;2023-02-28T14:41:34;5.30;99.90
13264;DHT22;6700;51.988;7.646;2023-02-28T14:46:41;5.20;99.90
13264;DHT22;6700;51.988;7.646;2023-02-28T14:49:31;5.30;99.90
13264;DHT22;6700;51.988;7.646;2023-02-28T14:52:20;5.30;99.90
13264;DHT22;6700;51.988;7.646;2023-02-28T14:54:55;5.20;99.90
13264;DHT22;6700;51.988;7.646;2023-02-28T14:57:29;5.30;99.90
13264;DHT22;6700;51.988;7.646;2023-02-28T15:00:15;5.20;99.90
13264;DHT22;6700;51.988;7.646;2023-02-28T15:02:43;5.20;99.90
13264;DHT22;6700;51.988;7.646;2023-02-28T15:05:21;5.10;99.90
13264;DHT22;6700;51.988;7.646;2023-02-28T15:08:01;5.10;99.90
13264;DHT22;6700;51.988;7.646;2023-02-28T15:10:28;5.20;99.90
13264;DHT22;6700;51.988;7.646;2023-02-28T15:15:39;5.10;99.90
13264;DHT22;6700;51.988;7.646;2023-02-28T15:21:31;5.20;99.90
13264;DHT22;6700;51.988;7.646;2023-02-28T15:24:10;5.10;99.90
13264;DHT22;6700;51.988;7.646;2023-02-28T15:26:50;5.10;99.90
13264;DHT22;6700;51.988;7.646;2023-02-28T15:29:22;5.00;99.90
13264;DHT22;6700;51.988;7.646;2023-02-28T15:31:54;5.00;99.90
13264;DHT22;6700;51.988;7.646;2023-02-28T15:34:37;5.00;99.90
13264;DHT22;6700;51.988;7.646;2023-02-28T15:40:23;5.00;99.90
13264;DHT22;6700;51.988;7.646;2023-02-28T15:48:23;5.00;99.90
13264;DHT22;6700;51.988;7.646;2023-02-28T15:56:43;4.90;99.90
13264;DHT22;6700;51.988;7.646;2023-02-28T15:59:21;4.80;99.90
13264;DHT22;6700;51.988;7.646;2023-02-28T16:04:37;4.80;99.90
13264;DHT22;6700;51.988;7.646;2023-02-28T16:07:05;4.80;99.90
13264;DHT22;6700;51.988;7.646;2023-02-28T16:09:32;4.70;99.90
13264;DHT22;6700;51.988;7.646;2023-02-28T16:12:02;4.70;99.90
13264;DHT22;6700;51.988;7.646;2023-02-28T16:14:30;4.60;99.90
13264;DHT22;6700;51.988;7.646;2023-02-28T16:17:03;4.60;99.90
13264;DHT22;6700;51.988;7.646;2023-02-28T16:19:31;4.40;99.90
13264;DHT22;6700;51.988;7.646;2023-02-28T16:22:00;4.40;99.90
13264;DHT22;6700;51.988;7.646;2023-02-28T16:24:27;4.40;99.90
13264;DHT22;6700;51.988;7.646;2023-02-28T16:26:55;4.40;99.90
13264;DHT22;6700;51.988;7.646;2023-02-28T16:29:30;4.40;99.90
13264;DHT22;6700;51.988;7.646;2023-02-28T16:31:57;4.30;99.90
13264;DHT22;6700;51.988;7.646;2023-02-28T16:34:25;4.30;99.90
13264;DHT22;6700;51.988;7.646;2023-02-28T16:36:51;4.20;99.90
13264;DHT22;6700;51.988;7.646;2023-02-28T16:39:18;4.20;99.90
13264;DHT22;6700;51.988;7.646;2023-02-28T16:41:48;4.10;99.90
13264;DHT22;6700;51.988;7.646;2023-02-28T16:46:55;4.10;99.90
13264;DHT22;6700;51.988;7.646;2023-02-28T16:49:22;4.10;99.90
13264;DHT22;6700;51.988;7.646;2023-02-28T16:51:48;4.00;99.90
13264;DHT22;6700;51.988;7.646;2023-02-28T16:54:15;4.00;99.90
13264;DHT22;6700;51.988;7.646;2023-02-28T16:56:45;3.90;99.90
13264;DHT22;6700;51.988;7.646;2023-02-28T16:59:21;3.80;99.90
13264;DHT22;6700;51.988;7.646;2023-02-28T17:01:48;3.80;99.90
13264;DHT22;6700;51.988;7.646;2023-02-28T17:04:16;3.70;99.90
13264;DHT22;6700;51.988;7.646;2023-02-28T17:06:43;3.70;99.90
13264;DHT22;6700;51.988;7.646;2023-02-28T17:09:18;3.70;99.90
13264;DHT22;6700;51.988;7.646;2023-02-28T17:11:45;3.60;99.90
13264;DHT22;6700;51.988;7.646;2023-02-28T17:14:13;3.60;99.90
13264;DHT22;6700;51.988;7.646;2023-02-28T17:16:40;3.60;99.90
13264;DHT22;6700;51.988;7.646;2023-02-28T17:19:14;3.60;99.90
13264;DHT22;6700;51.988;7.646;2023-02-28T17:21:41;3.50;99.90
13264;DHT22;6700;51.988;7.646;2023-02-28T17:24:09;3.50;99.90
13264;DHT22;6700;51.988;7.646;2023-02-28T17:26:55;3.40;99.90
13264;DHT22;6700;51.988;7.646;2023-02-28T17:29:22;3.30;99.90
13264;DHT22;6700;51.988;7.646;2023-02-28T17:31:52;3.30;99.90
13264;DHT22;6700;51.988;7.646;2023-02-28T17:34:19;3.30;99.90
13264;DHT22;6700;51.988;7.646;2023-02-28T17:36:48;3.20;99.90
13264;DHT22;6700;51.988;7.646;2023-02-28T17:39:16;3.20;99.90
13264;DHT22;6700;51.988;7.646;2023-02-28T17:41:54;3.10;99.90
13264;DHT22;6700;51.988;7.646;2023-02-28T17:44:22;3.10;99.90
13264;DHT22;6700;51.988;7.646;2023-02-28T17:46:51;3.10;99.90
13264;DHT22;6700;51.988;7.646;2023-02-28T17:49:18;3.00;99.90
13264;DHT22;6700;51.988;7.646;2023-02-28T17:51:45;2.90;99.90
13264;DHT22;6700;51.988;7.646;2023-02-28T17:54:12;3.00;99.90
13264;DHT22;6700;51.988;7.646;2023-02-28T17:56:40;2.80;99.90
13264;DHT22;6700;51.988;7.646;2023-02-28T17:59:10;2.80;99.90
13264;DHT22;6700;51.988;7.646;2023-02-28T18:01:38;2.70;99.90
13264;DHT22;6700;51.988;7.646;2023-02-28T18:04:05;2.70;99.90
13264;DHT22;6700;51.988;7.646;2023-02-28T18:06:43;2.60;99.90
13264;DHT22;6700;51.988;7.646;2023-02-28T18:09:14;2.50;99.90
13264;DHT22;6700;51.988;7.646;2023-02-28T18:11:41;2.50;99.90
13264;DHT22;6700;51.988;7.646;2023-02-28T18:14:11;2.40;99.90
13264;DHT22;6700;51.988;7.646;2023-02-28T18:16:38;2.40;99.90
13264;DHT22;6700;51.988;7.646;2023-02-28T18:19:05;2.50;99.90
13264;DHT22;6700;51.988;7.646;2023-02-28T18:21:32;2.40;99.90
13264;DHT22;6700;51.988;7.646;2023-02-28T18:23:59;2.40;99.90
13264;DHT22;6700;51.988;7.646;2023-02-28T18:26:26;2.30;99.90
13264;DHT22;6700;51.988;7.646;2023-02-28T18:28:53;2.30;99.90
13264;DHT22;6700;51.988;7.646;2023-02-28T18:31:19;2.20;99.90
13264;DHT22;6700;51.988;7.646;2023-02-28T18:33:50;2.10;99.90
13264;DHT22;6700;51.988;7.646;2023-02-28T18:36:19;2.30;99.90
13264;DHT22;6700;51.988;7.646;2023-02-28T18:38:47;2.20;99.90
13264;DHT22;6700;51.988;7.646;2023-02-28T18:41:14;2.10;99.90
13264;DHT22;6700;51.988;7.646;2023-02-28T18:43:40;2.10;99.90
13264;DHT22;6700;51.988;7.646;2023-02-28T18:46:10;2.00;99.90
13264;DHT22;6700;51.988;7.646;2023-02-28T18:48:38;2.10;99.90
13264;DHT22;6700;51.988;7.646;2023-02-28T18:51:10;1.90;99.90
13264;DHT22;6700;51.988;7.646;2023-02-28T18:53:37;2.00;99.90
13264;DHT22;6700;51.988;7.646;2023-02-28T18:56:07;1.90;99.90
13264;DHT22;6700;51.988;7.646;2023-02-28T18:58:34;1.80;99.90
13264;DHT22;6700;51.988;7.646;2023-02-28T19:01:02;1.80;99.90
13264;DHT22;6700;51.988;7.646;2023-02-28T19:03:30;1.80;99.90
13264;DHT22;6700;51.988;7.646;2023-02-28T19:05:58;1.70;99.90
13264;DHT22;6700;51.988;7.646;2023-02-28T19:08:25;1.80;99.90
13264;DHT22;6700;51.988;7.646;2023-02-28T19:10:52;1.60;99.90
13264;DHT22;6700;51.988;7.646;2023-02-28T19:13:20;1.60;99.90